CDT,Max TemperatureF,Mean TemperatureF,Min TemperatureF,Max Dew PointF,MeanDew PointF,Min DewpointF,Max Humidity, Mean Humidity, Min Humidity, Max Sea Level PressureIn, Mean Sea Level PressureIn, Min Sea Level PressureIn, Max VisibilityMiles, Mean VisibilityMiles, Min VisibilityMiles, Max Wind SpeedMPH, Mean Wind SpeedMPH, Max Gust SpeedMPH,PrecipitationIn, CloudCover, Events, WindDirDegrees
2013-8-1,78,66,55,63,58,54,100,72,42,30.08,30.03,29.95,10,9,3,15,6,18,0.00,0,,285
2013-8-2,82,73,64,68,64,61,94,77,51,30.00,29.93,29.90,10,10,10,15,7,20,0.04,3,Thunderstorm,291
2013-8-3,78,68,57,63,57,52,100,70,42,30.18,30.10,30.01,10,10,8,12,7,,0.02,0,,359
2013-8-4,77,65,53,59,54,48,94,68,38,30.24,30.19,30.13,10,10,8,9,6,,0.00,0,,35
2013-8-5,73,64,55,66,61,54,94,86,73,30.13,30.00,29.89,10,10,3,23,8,32,0.71,4,Thunderstorm,153
2013-8-6,80,72,64,73,69,63,100,91,74,29.92,29.88,29.84,10,5,0,10,5,,0.00,4,,209
2013-8-7,82,72,62,72,67,59,100,81,54,30.00,29.89,29.82,10,8,0,13,7,17,0.00,0,,310
2013-8-8,78,68,59,64,61,57,94,77,54,30.06,30.02,29.99,10,10,8,10,5,,0.00,1,,49
2013-8-9,80,70,60,68,63,57,94,80,61,30.11,30.05,30.02,10,9,4,10,4,,0.00,1,,284
2013-8-10,78,68,57,61,56,54,94,72,42,30.20,30.16,30.11,10,10,2,14,7,,0.00,1,,350
2013-8-11,80,68,55,68,61,54,94,76,57,30.17,30.12,30.05,10,10,10,14,3,20,0.00,2,,219
2013-8-12,80,71,62,70,63,57,94,78,54,30.06,30.00,29.95,10,10,10,12,7,16,0.00,2,,286
2013-8-13,71,62,53,57,51,45,94,68,38,30.19,30.12,30.01,10,10,10,16,8,21,0.00,1,,29
2013-8-14,73,60,46,55,49,45,94,69,41,30.27,30.21,30.17,10,10,10,9,3,,0.00,1,,351
2013-8-15,73,63,53,55,52,48,94,69,41,30.21,30.18,30.14,10,10,4,6,2,,0.00,0,,231
2013-8-16,78,64,51,61,53,48,94,67,36,30.23,30.20,30.17,10,10,6,9,4,,0.00,1,,29
2013-8-17,80,66,51,57,54,48,94,69,39,30.27,30.22,30.19,10,10,8,13,5,16,0.00,1,,92
2013-8-18,80,66,51,61,55,48,94,69,39,30.25,30.19,30.14,10,9,3,9,5,,0.00,1,,121
2013-8-19,82,68,55,64,61,52,94,73,51,30.15,30.11,30.06,10,10,5,13,4,,0.00,0,,203
2013-8-20,86,74,62,66,63,61,94,70,45,30.12,30.08,30.04,10,9,4,14,7,17,0.00,1,,174
2013-8-21,89,78,66,68,66,63,88,70,46,30.09,30.06,30.00,10,10,5,17,8,21,0.00,0,,197
2013-8-22,73,71,69,66,66,64,88,81,73,30.16,30.06,30.03,10,10,10,14,6,,0.00,0,,253
2013-8-23,82,73,64,63,59,55,78,62,45,30.18,30.16,30.14,10,10,10,12,9,21,0.00,0,,117
2013-8-24,87,72,57,68,61,52,88,68,49,30.27,30.22,30.17,10,10,8,13,8,16,0.00,0,,143
2013-8-25,89,78,66,70,65,63,88,68,40,30.26,30.21,30.16,10,10,8,15,9,22,0.00,0,,194
2013-8-26,91,78,64,73,68,61,89,74,52,30.18,30.11,30.02,10,10,8,13,6,18,0.00,0,,210
2013-8-27,93,81,69,72,69,66,94,70,46,30.03,29.96,29.89,10,10,9,17,8,25,0.00,0,,232
2013-8-28,87,78,69,77,71,64,94,77,66,30.05,29.99,29.92,10,10,7,14,7,,0.00,1,,353
2013-8-29,87,76,66,72,68,64,100,79,55,30.11,30.06,30.00,10,8,0,10,7,,0.00,2,,122
2013-8-30,96,82,69,75,71,66,94,71,41,30.00,29.89,29.80,10,9,3,18,7,26,0.00,0,Thunderstorm,198
2013-8-31,82,75,68,70,68,64,94,80,62,29.87,29.84,29.81,10,10,8,16,9,20,0.00,5,,77